Cecil, Ohio
Current Conditions -  °F | °C
As of 8:55 AM on Wednesday 26 Nov 2014 (Local Time) from KGWB Reporting Station
Overcast Overcast  
Wind Chill: 23°   Ceiling: 1500
Heat Index: 28°   Visibility: 10mi
Dew Point: 21°   Wind: 5mph
Humidity: 74%   Direction: 80°E
Pressure: 30.17"   Gusts: NA
Location:  41.22°N, 84.6°W
Report Text: KGWB 261355Z AUTO 08004KT 10SM OVC015 M02/M06 A3017 RMK AO2
Loading
Personal Weather Stations






























Interactive Weather Map New forecast layout! Learn more

10-Day Weather Forecast

Advertisements
Track Severe Weather on mobile